sensor_id;sensor_type;location;lat;lon;timestamp;pressure;altitude;pressure_sealevel;temperature;humidity
53916;BME280;39827;49.652;18.770;2023-01-05T00:01:25;96301.00;;;5.97;100.00
53916;BME280;39827;49.652;18.770;2023-01-05T00:03:50;96304.91;;;5.95;100.00
53916;BME280;39827;49.652;18.770;2023-01-05T00:06:16;96305.22;;;6.10;100.00
53916;BME280;39827;49.652;18.770;2023-01-05T00:08:42;96277.25;;;6.04;100.00
53916;BME280;39827;49.652;18.770;2023-01-05T00:11:16;96284.81;;;6.30;100.00
53916;BME280;39827;49.652;18.770;2023-01-05T00:14:01;96286.44;;;6.31;100.00
53916;BME280;39827;49.652;18.770;2023-01-05T00:16:45;96286.63;;;6.41;100.00
53916;BME280;39827;49.652;18.770;2023-01-05T00:19:29;96278.50;;;6.60;100.00
53916;BME280;39827;49.652;18.770;2023-01-05T00:22:15;96281.50;;;6.81;100.00
53916;BME280;39827;49.652;18.770;2023-01-05T00:25:06;96269.69;;;6.66;100.00
53916;BME280;39827;49.652;18.770;2023-01-05T00:27:32;96258.50;;;6.59;100.00
53916;BME280;39827;49.652;18.770;2023-01-05T00:29:58;96264.13;;;6.80;100.00
53916;BME280;39827;49.652;18.770;2023-01-05T00:32:24;96247.84;;;6.83;100.00
53916;BME280;39827;49.652;18.770;2023-01-05T00:34:50;96246.47;;;6.80;100.00
53916;BME280;39827;49.652;18.770;2023-01-05T00:37:18;96224.31;;;6.59;100.00
53916;BME280;39827;49.652;18.770;2023-01-05T00:39:44;96219.38;;;6.45;100.00
53916;BME280;39827;49.652;18.770;2023-01-05T00:42:09;96206.44;;;6.44;100.00
53916;BME280;39827;49.652;18.770;2023-01-05T00:44:34;96209.78;;;6.39;100.00
53916;BME280;39827;49.652;18.770;2023-01-05T00:47:00;96218.78;;;6.43;100.00
53916;BME280;39827;49.652;18.770;2023-01-05T00:49:25;96222.22;;;6.44;100.00
53916;BME280;39827;49.652;18.770;2023-01-05T00:51:51;96217.28;;;6.47;100.00
53916;BME280;39827;49.652;18.770;2023-01-05T00:54:16;96241.00;;;6.64;100.00
53916;BME280;39827;49.652;18.770;2023-01-05T00:56:41;96219.06;;;6.93;100.00
53916;BME280;39827;49.652;18.770;2023-01-05T00:59:07;96218.03;;;6.94;100.00
53916;BME280;39827;49.652;18.770;2023-01-05T01:01:32;96216.19;;;6.95;100.00
53916;BME280;39827;49.652;18.770;2023-01-05T01:03:57;96224.94;;;7.00;100.00
53916;BME280;39827;49.652;18.770;2023-01-05T01:06:23;96228.25;;;6.90;100.00
53916;BME280;39827;49.652;18.770;2023-01-05T01:08:48;96245.38;;;7.10;100.00
53916;BME280;39827;49.652;18.770;2023-01-05T01:11:14;96238.19;;;7.23;100.00
53916;BME280;39827;49.652;18.770;2023-01-05T01:13:42;96216.81;;;7.02;100.00
53916;BME280;39827;49.652;18.770;2023-01-05T01:16:09;96241.78;;;6.99;100.00
53916;BME280;39827;49.652;18.770;2023-01-05T01:18:35;96228.63;;;6.99;100.00
53916;BME280;39827;49.652;18.770;2023-01-05T01:21:01;96271.59;;;7.39;100.00
53916;BME280;39827;49.652;18.770;2023-01-05T01:23:26;96214.00;;;7.48;100.00
53916;BME280;39827;49.652;18.770;2023-01-05T01:25:51;96206.19;;;7.53;100.00
53916;BME280;39827;49.652;18.770;2023-01-05T01:28:17;96219.44;;;7.41;100.00
53916;BME280;39827;49.652;18.770;2023-01-05T01:30:42;96212.28;;;7.37;100.00
53916;BME280;39827;49.652;18.770;2023-01-05T01:33:08;96209.94;;;7.18;100.00
53916;BME280;39827;49.652;18.770;2023-01-05T01:35:36;96200.13;;;7.13;100.00
53916;BME280;39827;49.652;18.770;2023-01-05T01:38:01;96192.47;;;7.12;100.00
53916;BME280;39827;49.652;18.770;2023-01-05T01:40:27;96193.81;;;7.32;100.00
53916;BME280;39827;49.652;18.770;2023-01-05T01:42:53;96197.63;;;7.24;100.00
53916;BME280;39827;49.652;18.770;2023-01-05T01:45:21;96184.16;;;7.20;100.00
53916;BME280;39827;49.652;18.770;2023-01-05T01:47:56;96197.19;;;7.10;100.00
53916;BME280;39827;49.652;18.770;2023-01-05T01:50:26;96199.25;;;7.08;100.00
53916;BME280;39827;49.652;18.770;2023-01-05T01:52:57;96193.69;;;7.04;100.00
53916;BME280;39827;49.652;18.770;2023-01-05T01:55:23;96180.53;;;7.04;100.00
53916;BME280;39827;49.652;18.770;2023-01-05T01:57:49;96182.63;;;6.85;100.00
53916;BME280;39827;49.652;18.770;2023-01-05T02:00:16;96176.00;;;6.82;100.00
53916;BME280;39827;49.652;18.770;2023-01-05T02:02:44;96159.44;;;6.64;100.00
53916;BME280;39827;49.652;18.770;2023-01-05T02:05:11;96155.75;;;6.65;100.00
53916;BME280;39827;49.652;18.770;2023-01-05T02:07:42;96134.69;;;6.83;100.00
53916;BME280;39827;49.652;18.770;2023-01-05T02:10:08;96128.06;;;6.80;100.00
53916;BME280;39827;49.652;18.770;2023-01-05T02:15:20;96114.91;;;6.97;100.00
53916;BME280;39827;49.652;18.770;2023-01-05T02:18:31;96097.69;;;7.34;100.00
53916;BME280;39827;49.652;18.770;2023-01-05T02:32:10;96106.38;;;7.57;100.00
53916;BME280;39827;49.652;18.770;2023-01-05T02:34:50;96099.56;;;7.61;100.00
53916;BME280;39827;49.652;18.770;2023-01-05T02:37:23;96094.94;;;7.46;100.00
53916;BME280;39827;49.652;18.770;2023-01-05T02:40:09;96087.03;;;7.24;100.00
53916;BME280;39827;49.652;18.770;2023-01-05T02:42:38;96102.28;;;7.22;100.00
53916;BME280;39827;49.652;18.770;2023-01-05T02:45:06;96095.63;;;7.14;100.00
53916;BME280;39827;49.652;18.770;2023-01-05T02:47:42;96093.41;;;7.06;100.00
53916;BME280;39827;49.652;18.770;2023-01-05T02:50:09;96100.81;;;7.09;100.00
53916;BME280;39827;49.652;18.770;2023-01-05T02:52:45;96077.78;;;7.21;100.00
53916;BME280;39827;49.652;18.770;2023-01-05T02:55:14;96086.94;;;7.36;100.00
53916;BME280;39827;49.652;18.770;2023-01-05T02:57:49;96074.59;;;7.41;100.00
53916;BME280;39827;49.652;18.770;2023-01-05T03:00:21;96084.63;;;7.67;100.00
53916;BME280;39827;49.652;18.770;2023-01-05T03:02:51;96083.84;;;7.99;100.00
53916;BME280;39827;49.652;18.770;2023-01-05T03:05:25;96090.22;;;8.03;100.00
53916;BME280;39827;49.652;18.770;2023-01-05T03:07:54;96089.25;;;8.15;100.00
53916;BME280;39827;49.652;18.770;2023-01-05T03:10:57;96067.06;;;8.11;100.00
53916;BME280;39827;49.652;18.770;2023-01-05T03:13:38;96074.63;;;8.02;100.00
53916;BME280;39827;49.652;18.770;2023-01-05T03:16:08;96069.13;;;8.03;100.00
53916;BME280;39827;49.652;18.770;2023-01-05T03:18:35;96057.91;;;8.18;100.00
53916;BME280;39827;49.652;18.770;2023-01-05T03:21:26;96058.34;;;8.10;100.00
53916;BME280;39827;49.652;18.770;2023-01-05T03:23:53;96046.97;;;8.04;100.00
53916;BME280;39827;49.652;18.770;2023-01-05T03:26:39;96034.84;;;8.03;100.00
53916;BME280;39827;49.652;18.770;2023-01-05T03:29:24;96043.53;;;7.99;100.00
53916;BME280;39827;49.652;18.770;2023-01-05T03:32:17;96050.16;;;8.06;100.00
53916;BME280;39827;49.652;18.770;2023-01-05T03:35:10;96054.09;;;8.04;100.00
53916;BME280;39827;49.652;18.770;2023-01-05T03:38:34;96051.97;;;8.01;100.00
53916;BME280;39827;49.652;18.770;2023-01-05T03:41:03;96041.84;;;7.87;100.00
53916;BME280;39827;49.652;18.770;2023-01-05T03:43:33;96041.28;;;7.85;100.00
53916;BME280;39827;49.652;18.770;2023-01-05T03:46:00;96033.13;;;7.87;100.00
53916;BME280;39827;49.652;18.770;2023-01-05T03:48:27;96022.22;;;7.73;100.00
53916;BME280;39827;49.652;18.770;2023-01-05T03:50:53;96042.75;;;7.71;100.00
53916;BME280;39827;49.652;18.770;2023-01-05T03:53:18;96045.63;;;7.69;100.00
53916;BME280;39827;49.652;18.770;2023-01-05T03:55:44;96027.63;;;7.61;100.00
53916;BME280;39827;49.652;18.770;2023-01-05T03:58:09;96021.75;;;7.81;100.00
53916;BME280;39827;49.652;18.770;2023-01-05T04:00:35;96021.38;;;7.67;100.00
53916;BME280;39827;49.652;18.770;2023-01-05T04:03:00;96024.75;;;7.62;100.00
53916;BME280;39827;49.652;18.770;2023-01-05T04:05:26;96024.22;;;7.60;100.00
53916;BME280;39827;49.652;18.770;2023-01-05T04:07:51;96016.16;;;7.45;100.00
53916;BME280;39827;49.652;18.770;2023-01-05T04:10:17;96029.78;;;7.64;100.00
53916;BME280;39827;49.652;18.770;2023-01-05T04:12:42;96020.28;;;7.63;100.00
53916;BME280;39827;49.652;18.770;2023-01-05T04:15:08;96014.91;;;7.52;100.00
53916;BME280;39827;49.652;18.770;2023-01-05T04:17:34;96005.91;;;7.48;100.00
53916;BME280;39827;49.652;18.770;2023-01-05T04:19:59;96005.16;;;7.53;100.00
53916;BME280;39827;49.652;18.770;2023-01-05T04:22:25;96010.63;;;7.46;100.00
53916;BME280;39827;49.652;18.770;2023-01-05T04:24:50;96007.25;;;7.23;100.00
53916;BME280;39827;49.652;18.770;2023-01-05T04:27:16;96016.44;;;7.21;100.00
53916;BME280;39827;49.652;18.770;2023-01-05T04:29:41;96010.56;;;7.13;100.00
53916;BME280;39827;49.652;18.770;2023-01-05T04:32:07;96013.09;;;7.30;100.00
53916;BME280;39827;49.652;18.770;2023-01-05T04:34:32;96000.31;;;7.39;100.00
53916;BME280;39827;49.652;18.770;2023-01-05T04:36:58;95990.25;;;7.36;100.00
53916;BME280;39827;49.652;18.770;2023-01-05T04:39:23;95985.44;;;7.28;100.00
53916;BME280;39827;49.652;18.770;2023-01-05T04:41:48;96009.00;;;7.40;100.00
53916;BME280;39827;49.652;18.770;2023-01-05T04:44:15;95998.13;;;7.31;100.00
53916;BME280;39827;49.652;18.770;2023-01-05T04:46:40;95994.63;;;7.53;100.00
53916;BME280;39827;49.652;18.770;2023-01-05T04:49:05;95984.09;;;7.53;100.00
53916;BME280;39827;49.652;18.770;2023-01-05T04:51:31;95975.19;;;7.59;100.00
53916;BME280;39827;49.652;18.770;2023-01-05T04:53:56;95982.25;;;7.53;100.00
53916;BME280;39827;49.652;18.770;2023-01-05T04:56:22;95984.72;;;7.65;100.00
53916;BME280;39827;49.652;18.770;2023-01-05T04:58:47;95978.81;;;7.86;100.00
53916;BME280;39827;49.652;18.770;2023-01-05T05:01:13;95979.72;;;8.02;100.00
53916;BME280;39827;49.652;18.770;2023-01-05T05:03:38;95985.22;;;7.95;100.00
53916;BME280;39827;49.652;18.770;2023-01-05T05:06:04;95975.66;;;7.84;100.00
53916;BME280;39827;49.652;18.770;2023-01-05T05:08:30;95992.03;;;7.91;100.00
53916;BME280;39827;49.652;18.770;2023-01-05T05:10:55;95968.66;;;8.00;100.00
53916;BME280;39827;49.652;18.770;2023-01-05T05:13:20;95959.72;;;8.06;100.00
53916;BME280;39827;49.652;18.770;2023-01-05T05:15:46;95970.84;;;8.13;100.00
53916;BME280;39827;49.652;18.770;2023-01-05T05:18:11;95968.41;;;8.01;100.00
53916;BME280;39827;49.652;18.770;2023-01-05T05:20:40;95956.00;;;8.02;100.00
53916;BME280;39827;49.652;18.770;2023-01-05T05:23:06;95938.38;;;8.07;100.00
53916;BME280;39827;49.652;18.770;2023-01-05T05:25:32;95923.31;;;8.03;100.00
53916;BME280;39827;49.652;18.770;2023-01-05T05:27:57;95950.25;;;8.10;100.00
53916;BME280;39827;49.652;18.770;2023-01-05T05:30:23;95928.16;;;8.16;100.00
53916;BME280;39827;49.652;18.770;2023-01-05T05:32:48;95933.97;;;8.18;100.00
53916;BME280;39827;49.652;18.770;2023-01-05T05:35:13;95929.44;;;8.14;100.00
53916;BME280;39827;49.652;18.770;2023-01-05T05:37:39;95944.47;;;8.13;100.00
53916;BME280;39827;49.652;18.770;2023-01-05T05:40:05;95941.88;;;8.18;100.00
53916;BME280;39827;49.652;18.770;2023-01-05T05:42:30;95933.69;;;8.20;100.00
53916;BME280;39827;49.652;18.770;2023-01-05T05:44:55;95935.28;;;8.21;100.00
53916;BME280;39827;49.652;18.770;2023-01-05T05:47:21;95951.59;;;8.18;98.34
53916;BME280;39827;49.652;18.770;2023-01-05T05:49:46;95947.38;;;8.17;99.69
53916;BME280;39827;49.652;18.770;2023-01-05T05:52:12;95951.09;;;8.21;98.21
53916;BME280;39827;49.652;18.770;2023-01-05T05:54:37;95953.00;;;8.26;99.68
53916;BME280;39827;49.652;18.770;2023-01-05T05:57:02;95950.66;;;8.34;96.30
53916;BME280;39827;49.652;18.770;2023-01-05T05:59:28;95937.41;;;8.24;98.07
53916;BME280;39827;49.652;18.770;2023-01-05T06:01:53;95923.72;;;8.27;97.37
53916;BME280;39827;49.652;18.770;2023-01-05T06:04:18;95942.22;;;8.32;95.69
53916;BME280;39827;49.652;18.770;2023-01-05T06:06:44;95941.69;;;8.35;94.72
53916;BME280;39827;49.652;18.770;2023-01-05T06:09:09;95937.47;;;8.34;95.85
53916;BME280;39827;49.652;18.770;2023-01-05T06:11:35;95936.69;;;8.34;95.73
53916;BME280;39827;49.652;18.770;2023-01-05T06:14:00;95913.69;;;8.29;95.44
53916;BME280;39827;49.652;18.770;2023-01-05T06:16:27;95933.75;;;8.30;95.41
53916;BME280;39827;49.652;18.770;2023-01-05T06:18:53;95934.28;;;8.27;95.55
53916;BME280;39827;49.652;18.770;2023-01-05T06:21:18;95936.94;;;8.32;94.44
53916;BME280;39827;49.652;18.770;2023-01-05T06:23:45;95933.28;;;8.44;94.22
53916;BME280;39827;49.652;18.770;2023-01-05T06:26:11;95939.31;;;8.34;94.99
53916;BME280;39827;49.652;18.770;2023-01-05T06:28:36;95931.13;;;8.35;94.35
53916;BME280;39827;49.652;18.770;2023-01-05T06:31:02;95928.78;;;8.34;95.22
53916;BME280;39827;49.652;18.770;2023-01-05T06:33:27;95941.97;;;8.39;94.38
53916;BME280;39827;49.652;18.770;2023-01-05T06:35:52;95932.19;;;8.40;95.38
53916;BME280;39827;49.652;18.770;2023-01-05T06:38:18;95920.63;;;8.41;94.06
53916;BME280;39827;49.652;18.770;2023-01-05T06:40:45;95934.03;;;8.34;94.53
53916;BME280;39827;49.652;18.770;2023-01-05T06:43:11;95939.88;;;8.41;93.31
53916;BME280;39827;49.652;18.770;2023-01-05T06:45:37;95939.09;;;8.46;94.58
53916;BME280;39827;49.652;18.770;2023-01-05T06:48:03;95914.03;;;8.43;93.38
53916;BME280;39827;49.652;18.770;2023-01-05T06:50:28;95936.72;;;8.44;94.21
53916;BME280;39827;49.652;18.770;2023-01-05T06:52:54;95933.31;;;8.49;93.43
53916;BME280;39827;49.652;18.770;2023-01-05T06:55:20;95935.41;;;8.42;94.21
53916;BME280;39827;49.652;18.770;2023-01-05T06:57:46;95939.09;;;8.46;92.54
53916;BME280;39827;49.652;18.770;2023-01-05T07:00:13;95943.59;;;8.51;93.27
53916;BME280;39827;49.652;18.770;2023-01-05T07:02:38;95924.81;;;8.37;92.98
53916;BME280;39827;49.652;18.770;2023-01-05T07:05:04;95923.75;;;8.38;92.51
53916;BME280;39827;49.652;18.770;2023-01-05T07:07:29;95932.47;;;8.38;93.01
53916;BME280;39827;49.652;18.770;2023-01-05T07:09:55;95919.84;;;8.45;92.20
53916;BME280;39827;49.652;18.770;2023-01-05T07:12:20;95937.84;;;8.59;91.22
53916;BME280;39827;49.652;18.770;2023-01-05T07:14:46;95920.44;;;8.58;91.75
53916;BME280;39827;49.652;18.770;2023-01-05T07:17:11;95934.69;;;8.57;90.90
53916;BME280;39827;49.652;18.770;2023-01-05T07:19:37;95925.97;;;8.56;91.54
53916;BME280;39827;49.652;18.770;2023-01-05T07:22:03;95937.09;;;8.64;90.61
53916;BME280;39827;49.652;18.770;2023-01-05T07:24:28;95939.47;;;8.65;91.33
53916;BME280;39827;49.652;18.770;2023-01-05T07:26:54;95932.63;;;8.69;91.47
53916;BME280;39827;49.652;18.770;2023-01-05T07:29:19;95943.97;;;8.70;90.98
53916;BME280;39827;49.652;18.770;2023-01-05T07:31:45;95943.94;;;8.65;91.14
53916;BME280;39827;49.652;18.770;2023-01-05T07:34:12;95951.88;;;8.70;91.10
53916;BME280;39827;49.652;18.770;2023-01-05T07:36:37;95939.75;;;8.69;91.11
53916;BME280;39827;49.652;18.770;2023-01-05T07:39:02;95946.59;;;8.70;92.23
53916;BME280;39827;49.652;18.770;2023-01-05T07:41:28;95919.94;;;8.66;92.86
53916;BME280;39827;49.652;18.770;2023-01-05T07:43:53;95932.88;;;8.68;92.42
53916;BME280;39827;49.652;18.770;2023-01-05T07:46:19;95941.91;;;8.77;93.04
53916;BME280;39827;49.652;18.770;2023-01-05T07:48:44;95938.94;;;8.68;92.37
53916;BME280;39827;49.652;18.770;2023-01-05T07:51:10;95926.28;;;8.60;93.05
53916;BME280;39827;49.652;18.770;2023-01-05T07:53:36;95940.25;;;8.66;93.81
53916;BME280;39827;49.652;18.770;2023-01-05T07:56:04;95913.84;;;8.60;93.57
53916;BME280;39827;49.652;18.770;2023-01-05T07:58:30;95924.16;;;8.67;93.05
53916;BME280;39827;49.652;18.770;2023-01-05T08:00:56;95931.00;;;8.63;94.09
53916;BME280;39827;49.652;18.770;2023-01-05T08:03:21;95927.88;;;8.66;92.72
53916;BME280;39827;49.652;18.770;2023-01-05T08:05:47;95933.97;;;8.72;92.74
53916;BME280;39827;49.652;18.770;2023-01-05T08:08:13;95910.97;;;8.72;92.91
53916;BME280;39827;49.652;18.770;2023-01-05T08:10:41;95944.00;;;8.75;92.36
53916;BME280;39827;49.652;18.770;2023-01-05T08:13:08;95920.75;;;8.72;92.52
53916;BME280;39827;49.652;18.770;2023-01-05T08:15:55;95927.38;;;8.75;91.64
53916;BME280;39827;49.652;18.770;2023-01-05T08:18:21;95907.53;;;8.62;93.17
53916;BME280;39827;49.652;18.770;2023-01-05T08:20:58;95932.34;;;8.66;92.74
53916;BME280;39827;49.652;18.770;2023-01-05T08:23:25;95920.22;;;8.70;92.50
53916;BME280;39827;49.652;18.770;2023-01-05T08:25:51;95924.47;;;8.71;91.92
53916;BME280;39827;49.652;18.770;2023-01-05T08:28:16;95917.56;;;8.65;90.89
53916;BME280;39827;49.652;18.770;2023-01-05T08:30:42;95942.41;;;8.79;89.92
53916;BME280;39827;49.652;18.770;2023-01-05T08:33:08;95947.75;;;8.90;90.13
53916;BME280;39827;49.652;18.770;2023-01-05T08:35:33;95962.53;;;8.91;92.38
53916;BME280;39827;49.652;18.770;2023-01-05T08:37:59;95978.53;;;8.68;97.82
53916;BME280;39827;49.652;18.770;2023-01-05T08:40:24;95984.34;;;8.22;98.16
53916;BME280;39827;49.652;18.770;2023-01-05T08:42:50;96008.09;;;7.89;100.00
53916;BME280;39827;49.652;18.770;2023-01-05T08:45:16;96020.03;;;7.37;100.00
53916;BME280;39827;49.652;18.770;2023-01-05T08:47:42;96003.16;;;7.10;100.00
53916;BME280;39827;49.652;18.770;2023-01-05T08:50:09;96022.91;;;6.85;100.00
53916;BME280;39827;49.652;18.770;2023-01-05T08:52:37;96016.38;;;6.71;100.00
53916;BME280;39827;49.652;18.770;2023-01-05T08:55:04;96012.13;;;6.47;100.00
53916;BME280;39827;49.652;18.770;2023-01-05T08:57:30;96016.28;;;6.43;100.00
53916;BME280;39827;49.652;18.770;2023-01-05T08:59:55;96056.53;;;6.44;100.00
53916;BME280;39827;49.652;18.770;2023-01-05T09:02:21;96024.69;;;6.40;100.00
53916;BME280;39827;49.652;18.770;2023-01-05T09:04:46;96012.56;;;6.39;100.00
53916;BME280;39827;49.652;18.770;2023-01-05T09:07:11;96010.19;;;6.37;100.00
53916;BME280;39827;49.652;18.770;2023-01-05T09:09:37;96037.09;;;6.45;100.00
53916;BME280;39827;49.652;18.770;2023-01-05T09:12:03;96041.66;;;6.32;100.00
53916;BME280;39827;49.652;18.770;2023-01-05T09:14:28;96048.44;;;6.11;100.00
53916;BME280;39827;49.652;18.770;2023-01-05T09:16:54;96051.63;;;6.13;100.00
53916;BME280;39827;49.652;18.770;2023-01-05T09:19:19;96045.97;;;6.21;100.00
53916;BME280;39827;49.652;18.770;2023-01-05T09:21:44;96039.13;;;6.20;100.00
53916;BME280;39827;49.652;18.770;2023-01-05T09:24:10;96043.97;;;6.29;100.00
53916;BME280;39827;49.652;18.770;2023-01-05T09:26:36;96049.63;;;6.37;100.00
53916;BME280;39827;49.652;18.770;2023-01-05T09:29:02;96047.78;;;6.55;100.00
53916;BME280;39827;49.652;18.770;2023-01-05T09:31:27;96052.13;;;6.67;100.00
53916;BME280;39827;49.652;18.770;2023-01-05T09:33:53;96042.09;;;6.63;100.00
53916;BME280;39827;49.652;18.770;2023-01-05T09:36:20;96037.88;;;6.85;100.00
53916;BME280;39827;49.652;18.770;2023-01-05T09:38:49;96040.09;;;6.93;100.00
53916;BME280;39827;49.652;18.770;2023-01-05T09:43:46;96040.25;;;7.31;100.00
53916;BME280;39827;49.652;18.770;2023-01-05T09:46:22;96040.53;;;7.90;100.00
53916;BME280;39827;49.652;18.770;2023-01-05T09:48:52;96031.72;;;8.06;100.00
53916;BME280;39827;49.652;18.770;2023-01-05T09:51:19;96040.25;;;8.19;100.00
53916;BME280;39827;49.652;18.770;2023-01-05T09:53:45;96030.25;;;8.26;100.00
53916;BME280;39827;49.652;18.770;2023-01-05T09:56:30;96038.69;;;8.23;100.00
53916;BME280;39827;49.652;18.770;2023-01-05T09:59:06;96031.25;;;8.15;100.00
53916;BME280;39827;49.652;18.770;2023-01-05T10:01:36;96029.06;;;8.06;100.00
53916;BME280;39827;49.652;18.770;2023-01-05T10:04:05;96025.09;;;8.04;100.00
53916;BME280;39827;49.652;18.770;2023-01-05T10:06:36;96033.31;;;8.13;100.00
53916;BME280;39827;49.652;18.770;2023-01-05T10:09:04;96023.81;;;8.06;100.00
53916;BME280;39827;49.652;18.770;2023-01-05T10:15:00;96030.50;;;8.25;100.00
53916;BME280;39827;49.652;18.770;2023-01-05T10:17:28;96028.16;;;8.23;100.00
53916;BME280;39827;49.652;18.770;2023-01-05T10:19:56;96025.66;;;8.11;100.00
53916;BME280;39827;49.652;18.770;2023-01-05T10:22:37;96008.41;;;8.31;100.00
53916;BME280;39827;49.652;18.770;2023-01-05T10:31:22;95998.69;;;8.37;100.00
53916;BME280;39827;49.652;18.770;2023-01-05T10:33:37;96003.41;;;8.34;100.00
53916;BME280;39827;49.652;18.770;2023-01-05T10:36:41;96007.16;;;8.44;100.00
53916;BME280;39827;49.652;18.770;2023-01-05T10:39:25;96011.72;;;8.54;100.00
53916;BME280;39827;49.652;18.770;2023-01-05T10:42:04;95994.06;;;8.59;99.37
53916;BME280;39827;49.652;18.770;2023-01-05T10:44:57;96016.00;;;8.65;97.72
53916;BME280;39827;49.652;18.770;2023-01-05T10:47:25;96000.94;;;8.60;97.90
53916;BME280;39827;49.652;18.770;2023-01-05T10:49:53;96006.00;;;8.72;96.94
53916;BME280;39827;49.652;18.770;2023-01-05T10:52:21;96010.25;;;8.73;97.20
53916;BME280;39827;49.652;18.770;2023-01-05T10:55:00;96014.16;;;8.66;97.29
53916;BME280;39827;49.652;18.770;2023-01-05T10:57:29;96015.19;;;8.59;95.72
53916;BME280;39827;49.652;18.770;2023-01-05T11:00:02;96013.91;;;8.67;95.20
53916;BME280;39827;49.652;18.770;2023-01-05T11:02:32;96001.38;;;8.52;95.94
53916;BME280;39827;49.652;18.770;2023-01-05T11:05:21;96010.38;;;8.51;95.03
53916;BME280;39827;49.652;18.770;2023-01-05T11:07:50;96004.06;;;8.57;94.62
53916;BME280;39827;49.652;18.770;2023-01-05T11:10:39;96001.53;;;8.73;95.18
53916;BME280;39827;49.652;18.770;2023-01-05T11:13:16;96015.28;;;8.75;93.09
53916;BME280;39827;49.652;18.770;2023-01-05T11:21:15;96014.34;;;9.12;88.74
53916;BME280;39827;49.652;18.770;2023-01-05T11:23:49;96001.19;;;9.33;87.84
53916;BME280;39827;49.652;18.770;2023-01-05T11:31:46;96002.94;;;8.96;87.98
53916;BME280;39827;49.652;18.770;2023-01-05T11:36:57;96004.16;;;8.73;87.79
53916;BME280;39827;49.652;18.770;2023-01-05T11:42:08;96006.72;;;8.57;88.23
53916;BME280;39827;49.652;18.770;2023-01-05T11:44:34;96008.84;;;8.60;88.90
53916;BME280;39827;49.652;18.770;2023-01-05T11:47:01;96011.34;;;8.40;88.80
53916;BME280;39827;49.652;18.770;2023-01-05T11:49:27;95997.41;;;8.44;87.88
53916;BME280;39827;49.652;18.770;2023-01-05T11:51:52;96009.41;;;8.63;88.13
53916;BME280;39827;49.652;18.770;2023-01-05T11:54:30;96007.53;;;8.58;89.84
53916;BME280;39827;49.652;18.770;2023-01-05T11:57:17;96004.03;;;8.52;87.99
53916;BME280;39827;49.652;18.770;2023-01-05T11:59:44;95996.75;;;8.65;87.70
53916;BME280;39827;49.652;18.770;2023-01-05T12:02:32;96008.97;;;8.81;86.16
53916;BME280;39827;49.652;18.770;2023-01-05T12:07:36;96022.56;;;11.83;71.12
53916;BME280;39827;49.652;18.770;2023-01-05T12:10:29;96023.53;;;12.28;70.04
53916;BME280;39827;49.652;18.770;2023-01-05T12:15:33;96015.19;;;10.64;74.92
53916;BME280;39827;49.652;18.770;2023-01-05T12:23:52;96002.28;;;9.79;77.76
53916;BME280;39827;49.652;18.770;2023-01-05T12:29:10;95996.97;;;9.32;80.17
53916;BME280;39827;49.652;18.770;2023-01-05T12:37:55;96004.25;;;8.94;82.05
53916;BME280;39827;49.652;18.770;2023-01-05T12:40:48;96002.69;;;8.93;81.83
53916;BME280;39827;49.652;18.770;2023-01-05T12:46:11;95996.56;;;8.82;82.11
53916;BME280;39827;49.652;18.770;2023-01-05T12:48:46;96011.09;;;8.84;81.92
53916;BME280;39827;49.652;18.770;2023-01-05T12:51:42;96010.03;;;8.91;80.73
53916;BME280;39827;49.652;18.770;2023-01-05T12:54:29;96002.06;;;8.75;83.45
53916;BME280;39827;49.652;18.770;2023-01-05T12:57:08;95996.81;;;8.80;81.49
53916;BME280;39827;49.652;18.770;2023-01-05T12:59:47;95990.97;;;8.78;81.24
53916;BME280;39827;49.652;18.770;2023-01-05T13:02:36;95999.69;;;8.73;81.90
53916;BME280;39827;49.652;18.770;2023-01-05T13:05:21;95989.66;;;8.76;82.29
53916;BME280;39827;49.652;18.770;2023-01-05T13:07:53;96004.41;;;8.71;80.96
53916;BME280;39827;49.652;18.770;2023-01-05T13:10:36;96004.16;;;8.73;81.48
53916;BME280;39827;49.652;18.770;2023-01-05T13:13:09;96009.44;;;8.68;81.58
53916;BME280;39827;49.652;18.770;2023-01-05T13:15:44;95999.41;;;8.70;80.56
53916;BME280;39827;49.652;18.770;2023-01-05T13:18:16;96009.41;;;8.63;82.42
53916;BME280;39827;49.652;18.770;2023-01-05T13:20:52;96005.72;;;8.64;81.68
53916;BME280;39827;49.652;18.770;2023-01-05T13:23:35;96014.44;;;8.69;80.97
53916;BME280;39827;49.652;18.770;2023-01-05T13:26:21;96020.97;;;8.56;82.37
53916;BME280;39827;49.652;18.770;2023-01-05T13:28:48;96012.56;;;8.65;81.67
53916;BME280;39827;49.652;18.770;2023-01-05T13:34:03;96014.84;;;8.51;82.19
53916;BME280;39827;49.652;18.770;2023-01-05T13:39:28;96025.97;;;8.53;82.58
53916;BME280;39827;49.652;18.770;2023-01-05T13:47:24;96038.38;;;8.57;82.39
53916;BME280;39827;49.652;18.770;2023-01-05T13:55:21;96028.88;;;8.56;80.82
53916;BME280;39827;49.652;18.770;2023-01-05T13:57:48;96041.31;;;8.56;80.73
53916;BME280;39827;49.652;18.770;2023-01-05T14:00:28;96050.00;;;8.56;80.80
53916;BME280;39827;49.652;18.770;2023-01-05T14:03:02;96064.78;;;8.57;81.26
53916;BME280;39827;49.652;18.770;2023-01-05T14:05:38;96056.84;;;8.57;80.46
53916;BME280;39827;49.652;18.770;2023-01-05T14:08:19;96047.56;;;8.50;81.21
53916;BME280;39827;49.652;18.770;2023-01-05T14:11:13;96050.41;;;8.43;81.09
53916;BME280;39827;49.652;18.770;2023-01-05T14:13:59;96054.38;;;8.45;80.58
53916;BME280;39827;49.652;18.770;2023-01-05T14:24:36;96054.94;;;8.47;80.50
53916;BME280;39827;49.652;18.770;2023-01-05T14:27:08;96039.34;;;8.41;82.08
53916;BME280;39827;49.652;18.770;2023-01-05T14:32:10;96079.25;;;8.17;82.96
53916;BME280;39827;49.652;18.770;2023-01-05T14:34:44;96104.06;;;8.21;82.49
53916;BME280;39827;49.652;18.770;2023-01-05T14:37:24;96116.00;;;8.29;82.15
53916;BME280;39827;49.652;18.770;2023-01-05T14:39:51;96131.03;;;8.28;82.87
53916;BME280;39827;49.652;18.770;2023-01-05T14:42:30;96125.09;;;8.11;87.63